Russellton, Pennsylvania
Current Conditions -  °F | °C
As of 6:55 AM on Friday 28 Nov 2014 (Local Time) from KBTP Reporting Station
Overcast Overcast  
Wind Chill: 14°   Ceiling: 4600
Heat Index: 25°   Visibility: 10mi
Dew Point: 16°   Wind: 12mph
Humidity: 69%   Direction: 280°W
Pressure: 30.29"   Gusts: 16mph
Location:  40.61°N, 79.84°W
Report Text: KBTP 281155Z AUTO 28010G14KT 250V310 10SM FEW016 SCT025 OVC046 M04/M09 A3029 RMK AO1 70003 11020 21040 52017
Loading
Personal Weather Stations






























Interactive Weather Map New forecast layout! Learn more

10-Day Weather Forecast

Advertisements
Track Severe Weather on mobile